Time;durP1;ratioP1;P1;durP2;ratioP2;P2;SDS_P1;SDS_P2;PMS_P1;PMS_P2;Temp;Humidity;BMP_temperature;BMP_pressure;BME280_temperature;BME280_humidity;BME280_pressure;Samples;Min_cycle;Max_cycle;Signal;HPM_P1;HPM_P2
2023/08/22 00:00:44;;;;;;;19.23;12.73;;;;;;;;;;5004935;28;20363;-67
2023/08/22 00:03:09;;;;;;;21.90;11.85;;;;;;;;;;5023131;28;20065;-67
2023/08/22 00:05:35;;;;;;;22.85;11.55;;;;;;;;;;5039453;28;20516;-66
2023/08/22 00:08:00;;;;;;;24.58;13.07;;;;;;;;;;5018630;28;20038;-67
2023/08/22 00:10:27;;;;;;;20.27;11.15;;;;;;;;;;5017296;28;20037;-67
2023/08/22 00:12:55;;;;;;;18.27;11.27;;;;;;;;;;5016136;28;20067;-65
2023/08/22 00:15:20;;;;;;;18.10;11.00;;;;;;;;;;5018083;28;20033;-68
2023/08/22 00:17:45;;;;;;;21.23;11.77;;;;;;;;;;5016247;28;20055;-67
2023/08/22 00:20:13;;;;;;;26.38;13.00;;;;;;;;;;5022489;28;20521;-66
2023/08/22 00:22:39;;;;;;;30.23;16.60;;;;;;;;;;5005251;28;22221;-66
2023/08/22 00:25:05;;;;;;;38.30;18.38;;;;;;;;;;4997874;28;20425;-66
2023/08/22 00:27:33;;;;;;;30.52;15.70;;;;;;;;;;4996367;28;20043;-67
2023/08/22 00:29:58;;;;;;;27.83;14.35;;;;;;;;;;4984721;28;20425;-66
2023/08/22 00:32:24;;;;;;;27.30;14.25;;;;;;;;;;4996879;28;20193;-67
2023/08/22 00:34:52;;;;;;;32.35;16.15;;;;;;;;;;4998850;28;20464;-66
2023/08/22 00:37:18;;;;;;;33.90;15.50;;;;;;;;;;4995459;28;20043;-66
2023/08/22 00:39:43;;;;;;;34.45;17.88;;;;;;;;;;5013474;28;20048;-66
2023/08/22 00:42:08;;;;;;;28.75;15.35;;;;;;;;;;5016473;28;20040;-66
2023/08/22 00:44:34;;;;;;;29.02;14.60;;;;;;;;;;5016453;28;20052;-67
2023/08/22 00:46:59;;;;;;;26.73;13.80;;;;;;;;;;5020939;28;20512;-66
2023/08/22 00:49:26;;;;;;;29.35;13.65;;;;;;;;;;5016365;28;21988;-66
2023/08/22 00:51:52;;;;;;;27.17;12.63;;;;;;;;;;5015422;28;20344;-66
2023/08/22 00:54:18;;;;;;;25.70;11.77;;;;;;;;;;5017306;28;20044;-67
2023/08/22 00:56:43;;;;;;;20.85;11.35;;;;;;;;;;5018565;28;20141;-67
2023/08/22 00:59:09;;;;;;;24.40;11.93;;;;;;;;;;5003205;28;20037;-66
2023/08/22 01:01:37;;;;;;;25.23;11.90;;;;;;;;;;5020375;28;20041;-66
2023/08/22 01:04:05;;;;;;;29.10;14.85;;;;;;;;;;5016561;28;21904;-66
2023/08/22 01:06:39;;;;;;;34.55;16.65;;;;;;;;;;5013590;28;20040;-66
2023/08/22 01:09:18;;;;;;;29.40;16.00;;;;;;;;;;5015129;28;20036;-67
2023/08/22 01:11:50;;;;;;;18.83;9.88;;;;;;;;;;5017412;28;20037;-66
2023/08/22 01:14:20;;;;;;;16.70;10.20;;;;;;;;;;5018435;28;20037;-67
2023/08/22 01:16:48;;;;;;;21.08;10.43;;;;;;;;;;5015125;28;20092;-66
2023/08/22 01:19:19;;;;;;;20.33;11.98;;;;;;;;;;5031113;28;20188;-67
2023/08/22 01:21:52;;;;;;;20.52;10.48;;;;;;;;;;5013750;27;20043;-67
2023/08/22 01:24:17;;;;;;;;;;;;;;;;;;5028171;28;20049;-67
2023/08/22 01:26:43;;;;;;;24.40;13.67;;;;;;;;;;4995359;28;19913;-66
2023/08/22 01:29:10;;;;;;;21.48;12.52;;;;;;;;;;5004513;28;20299;-66
2023/08/22 01:31:59;;;;;;;19.13;9.95;;;;;;;;;;5008413;28;20053;-66
2023/08/22 01:34:29;;;;;;;16.05;11.45;;;;;;;;;;5044708;28;20169;-66
2023/08/22 01:36:54;;;;;;;24.73;12.85;;;;;;;;;;5015113;28;20133;-66
2023/08/22 01:39:24;;;;;;;19.85;11.13;;;;;;;;;;5015664;28;20130;-66
2023/08/22 01:41:49;;;;;;;24.63;13.23;;;;;;;;;;5017147;28;20079;-66
2023/08/22 01:44:15;;;;;;;19.38;13.98;;;;;;;;;;5016683;28;20048;-66
2023/08/22 01:46:40;;;;;;;23.98;18.05;;;;;;;;;;5011791;28;20028;-66
2023/08/22 01:49:05;;;;;;;28.17;14.55;;;;;;;;;;5012812;28;20111;-66
2023/08/22 01:51:30;;;;;;;20.52;12.48;;;;;;;;;;5014801;28;20040;-66
2023/08/22 01:53:56;;;;;;;27.27;12.13;;;;;;;;;;5014888;28;20067;-67
2023/08/22 01:56:24;;;;;;;22.77;12.48;;;;;;;;;;5015310;28;20051;-67
2023/08/22 01:58:49;;;;;;;23.67;12.35;;;;;;;;;;5015447;28;20047;-67
2023/08/22 02:01:15;;;;;;;21.25;13.18;;;;;;;;;;5017127;28;20029;-66
2023/08/22 02:03:41;;;;;;;21.42;12.93;;;;;;;;;;5015852;28;20215;-67
2023/08/22 02:06:06;;;;;;;24.10;12.98;;;;;;;;;;5015654;28;20037;-67
2023/08/22 02:08:35;;;;;;;20.40;12.25;;;;;;;;;;5014758;28;20508;-67
2023/08/22 02:11:00;;;;;;;23.63;12.50;;;;;;;;;;5001824;28;20044;-67
2023/08/22 02:13:25;;;;;;;22.15;12.23;;;;;;;;;;5015169;28;20029;-67
2023/08/22 02:15:51;;;;;;;20.17;11.18;;;;;;;;;;5015394;28;20552;-67
2023/08/22 02:18:16;;;;;;;20.60;11.45;;;;;;;;;;5012973;28;20548;-67
2023/08/22 02:20:42;;;;;;;18.60;11.75;;;;;;;;;;5015368;28;20036;-67
2023/08/22 02:23:07;;;;;;;27.15;13.70;;;;;;;;;;5015662;28;20116;-67
2023/08/22 02:25:32;;;;;;;21.02;15.23;;;;;;;;;;5013076;28;20056;-67
2023/08/22 02:28:01;;;;;;;21.20;13.00;;;;;;;;;;5014650;28;20153;-67
2023/08/22 02:30:27;;;;;;;26.55;11.45;;;;;;;;;;5014948;28;20326;-67
2023/08/22 02:32:52;;;;;;;25.00;15.82;;;;;;;;;;5015683;28;20455;-67
2023/08/22 02:35:19;;;;;;;20.38;12.73;;;;;;;;;;5014100;28;20087;-66
2023/08/22 02:37:45;;;;;;;22.88;12.45;;;;;;;;;;5020364;28;20498;-67
2023/08/22 02:40:10;;;;;;;19.00;12.73;;;;;;;;;;5018590;28;20048;-67
2023/08/22 02:42:38;;;;;;;23.08;13.13;;;;;;;;;;5044900;28;20545;-67
2023/08/22 02:45:04;;;;;;;22.15;13.70;;;;;;;;;;5015550;28;20044;-67
2023/08/22 02:47:32;;;;;;;26.70;14.25;;;;;;;;;;5019211;28;20378;-67
2023/08/22 02:49:57;;;;;;;22.63;14.35;;;;;;;;;;5015213;28;20183;-67
2023/08/22 02:52:23;;;;;;;22.75;14.38;;;;;;;;;;5014154;28;20041;-67
2023/08/22 02:54:48;;;;;;;24.33;16.15;;;;;;;;;;5013608;28;20033;-66
2023/08/22 02:57:18;;;;;;;27.05;14.95;;;;;;;;;;5018697;28;20489;-67
2023/08/22 02:59:43;;;;;;;31.90;15.55;;;;;;;;;;5019848;28;20426;-67
2023/08/22 03:02:11;;;;;;;37.50;16.83;;;;;;;;;;5049968;28;20062;-67
2023/08/22 03:04:37;;;;;;;28.92;15.85;;;;;;;;;;5018969;28;20048;-67
2023/08/22 03:07:09;;;;;;;29.60;15.70;;;;;;;;;;5017008;28;20096;-67
2023/08/22 03:09:34;;;;;;;27.13;14.35;;;;;;;;;;5005524;28;20067;-67
2023/08/22 03:12:04;;;;;;;26.02;14.65;;;;;;;;;;5019060;28;20579;-67
2023/08/22 03:14:30;;;;;;;25.10;15.52;;;;;;;;;;5017040;28;20220;-67
2023/08/22 03:16:55;;;;;;;27.38;16.88;;;;;;;;;;5016661;28;20055;-67
2023/08/22 03:19:20;;;;;;;24.83;16.25;;;;;;;;;;5015393;28;20455;-67
2023/08/22 03:21:51;;;;;;;25.15;15.10;;;;;;;;;;5016942;28;20041;-67
2023/08/22 03:24:17;;;;;;;27.85;16.10;;;;;;;;;;5019054;28;20052;-67
2023/08/22 03:26:45;;;;;;;25.80;16.60;;;;;;;;;;5015708;28;20040;-66
2023/08/22 03:29:10;;;;;;;29.88;17.15;;;;;;;;;;5013814;28;20478;-67
2023/08/22 03:31:38;;;;;;;26.10;16.88;;;;;;;;;;5017426;28;20081;-66
2023/08/22 03:34:03;;;;;;;34.05;18.67;;;;;;;;;;5017240;28;20748;-66
2023/08/22 03:36:28;;;;;;;33.08;17.98;;;;;;;;;;5020162;28;20193;-67
2023/08/22 03:38:55;;;;;;;34.38;18.42;;;;;;;;;;5017939;28;20828;-66
2023/08/22 03:41:22;;;;;;;39.20;23.73;;;;;;;;;;5016722;28;20034;-66
2023/08/22 03:43:48;;;;;;;35.83;20.92;;;;;;;;;;5015232;28;20049;-66
2023/08/22 03:46:15;;;;;;;32.40;17.42;;;;;;;;;;5019699;28;20444;-66
2023/08/22 03:48:40;;;;;;;30.83;17.65;;;;;;;;;;5018784;28;20045;-66
2023/08/22 03:51:06;;;;;;;30.08;17.25;;;;;;;;;;5020773;28;20037;-66
2023/08/22 03:53:35;;;;;;;24.77;15.68;;;;;;;;;;5015104;28;22218;-66
2023/08/22 03:56:00;;;;;;;25.98;15.73;;;;;;;;;;5017169;28;20060;-67
2023/08/22 03:58:25;;;;;;;31.23;15.95;;;;;;;;;;5025684;28;20044;-67
2023/08/22 04:00:53;;;;;;;28.23;16.38;;;;;;;;;;5013999;28;20388;-67
2023/08/22 04:03:18;;;;;;;34.30;18.13;;;;;;;;;;5016402;28;20033;-68
2023/08/22 04:05:43;;;;;;;38.55;21.90;;;;;;;;;;5019032;28;20055;-67
2023/08/22 04:08:09;;;;;;;34.67;21.13;;;;;;;;;;5017747;28;20143;-66
2023/08/22 04:10:34;;;;;;;33.50;20.63;;;;;;;;;;5021560;28;20208;-67
2023/08/22 04:12:59;;;;;;;42.00;19.70;;;;;;;;;;5046921;28;20482;-66
2023/08/22 04:15:24;;;;;;;33.53;19.40;;;;;;;;;;5017712;28;20067;-67
2023/08/22 04:17:50;;;;;;;29.23;17.17;;;;;;;;;;5015064;28;20144;-66
2023/08/22 04:20:15;;;;;;;29.90;14.63;;;;;;;;;;5018040;28;20037;-67
2023/08/22 04:22:41;;;;;;;23.75;13.95;;;;;;;;;;5015445;28;20436;-67
2023/08/22 04:25:07;;;;;;;24.83;14.77;;;;;;;;;;5012262;28;20133;-67
2023/08/22 04:27:35;;;;;;;33.28;16.60;;;;;;;;;;5029936;28;20075;-67
2023/08/22 04:30:03;;;;;;;38.20;16.63;;;;;;;;;;4997814;28;20552;-67
2023/08/22 04:32:28;;;;;;;35.67;17.98;;;;;;;;;;4994647;28;20091;-67
2023/08/22 04:34:54;;;;;;;35.97;18.98;;;;;;;;;;5010729;28;20034;-66
2023/08/22 04:37:19;;;;;;;39.55;20.08;;;;;;;;;;4999390;28;20080;-66
2023/08/22 04:39:44;;;;;;;39.20;20.13;;;;;;;;;;4996785;28;20192;-65
2023/08/22 04:42:12;;;;;;;31.27;19.98;;;;;;;;;;5003297;28;20540;-66
2023/08/22 04:44:37;;;;;;;26.58;18.13;;;;;;;;;;4996426;28;20101;-66
2023/08/22 04:47:03;;;;;;;28.13;16.95;;;;;;;;;;4997281;28;20190;-66
2023/08/22 04:49:30;;;;;;;26.27;18.90;;;;;;;;;;4998783;28;20128;-66
2023/08/22 04:51:58;;;;;;;27.35;17.67;;;;;;;;;;4995502;28;20049;-65
2023/08/22 04:54:24;;;;;;;23.75;15.15;;;;;;;;;;4998798;28;20702;-65
2023/08/22 04:56:51;;;;;;;25.90;15.93;;;;;;;;;;4997855;28;20056;-67
2023/08/22 04:59:19;;;;;;;25.52;14.05;;;;;;;;;;4999331;28;20203;-66
2023/08/22 05:01:44;;;;;;;19.45;13.32;;;;;;;;;;4996842;28;20113;-66
2023/08/22 05:04:12;;;;;;;22.63;14.75;;;;;;;;;;5001545;28;20055;-66
2023/08/22 05:06:37;;;;;;;19.90;13.00;;;;;;;;;;5015267;28;20903;-65
2023/08/22 05:09:03;;;;;;;21.02;12.65;;;;;;;;;;5017365;28;20189;-67
2023/08/22 05:11:28;;;;;;;18.92;12.43;;;;;;;;;;5016607;28;20447;-67
2023/08/22 05:13:53;;;;;;;18.80;11.80;;;;;;;;;;5016569;28;20166;-66
2023/08/22 05:16:18;;;;;;;19.80;10.90;;;;;;;;;;5025661;28;20680;-66
2023/08/22 05:18:44;;;;;;;23.77;11.45;;;;;;;;;;5017841;28;20037;-66
2023/08/22 05:21:09;;;;;;;24.23;12.57;;;;;;;;;;5016696;28;20034;-65
2023/08/22 05:23:37;;;;;;;25.23;14.45;;;;;;;;;;5018945;28;21676;-66
2023/08/22 05:26:04;;;;;;;30.13;18.15;;;;;;;;;;5016808;28;20067;-68
2023/08/22 05:28:30;;;;;;;24.83;17.42;;;;;;;;;;5008979;28;20036;-67
2023/08/22 05:30:55;;;;;;;28.15;17.52;;;;;;;;;;5015024;28;20617;-66
2023/08/22 05:33:23;;;;;;;34.75;17.65;;;;;;;;;;5014161;28;20101;-66
2023/08/22 05:35:48;;;;;;;26.35;15.30;;;;;;;;;;5013656;28;20037;-66
2023/08/22 05:38:13;;;;;;;18.48;10.43;;;;;;;;;;5019417;28;20029;-66
2023/08/22 05:40:38;;;;;;;17.23;9.63;;;;;;;;;;5015313;28;20093;-66
2023/08/22 05:43:04;;;;;;;20.02;11.27;;;;;;;;;;5021716;28;20102;-66
2023/08/22 05:45:33;;;;;;;19.88;11.98;;;;;;;;;;5015416;28;20160;-67
2023/08/22 05:47:59;;;;;;;22.80;12.35;;;;;;;;;;5015587;28;20033;-67
2023/08/22 05:50:24;;;;;;;20.23;11.55;;;;;;;;;;5015138;28;20087;-70
2023/08/22 05:52:50;;;;;;;21.75;10.80;;;;;;;;;;5013454;28;20037;-68
2023/08/22 05:55:16;;;;;;;15.50;10.50;;;;;;;;;;5015955;28;20041;-68
2023/08/22 05:57:41;;;;;;;25.42;13.30;;;;;;;;;;5013647;28;20060;-69
2023/08/22 06:00:09;;;;;;;22.63;11.85;;;;;;;;;;5017794;28;20040;-68
2023/08/22 06:02:34;;;;;;;21.92;12.23;;;;;;;;;;5014250;28;20533;-66
2023/08/22 06:05:02;;;;;;;17.30;12.23;;;;;;;;;;5015299;28;20076;-67
2023/08/22 06:07:27;;;;;;;22.00;13.32;;;;;;;;;;5011207;28;20036;-68
2023/08/22 06:09:53;;;;;;;18.73;12.35;;;;;;;;;;5014325;28;20051;-68
2023/08/22 06:12:19;;;;;;;13.95;7.93;;;;;;;;;;5018474;28;20280;-67
2023/08/22 06:14:46;;;;;;;8.50;3.50;;;;;;;;;;5015813;28;20176;-68
2023/08/22 06:17:12;;;;;;;10.75;2.58;;;;;;;;;;5014372;28;20041;-68
2023/08/22 06:19:37;;;;;;;9.48;2.72;;;;;;;;;;5014535;28;20029;-68
2023/08/22 06:22:02;;;;;;;9.15;2.72;;;;;;;;;;5014482;28;22316;-67
2023/08/22 06:24:30;;;;;;;9.63;2.78;;;;;;;;;;5016655;28;20045;-69
2023/08/22 06:26:57;;;;;;;11.75;2.08;;;;;;;;;;5030853;28;20033;-64
2023/08/22 06:29:22;;;;;;;16.00;2.40;;;;;;;;;;5015650;28;20040;-64
2023/08/22 06:31:48;;;;;;;10.77;2.60;;;;;;;;;;5018253;28;20402;-64
2023/08/22 06:34:15;;;;;;;9.45;2.38;;;;;;;;;;5018390;28;20041;-64
2023/08/22 06:36:41;;;;;;;14.48;2.53;;;;;;;;;;5019726;28;20033;-64
2023/08/22 06:39:06;;;;;;;8.88;2.00;;;;;;;;;;5018985;28;20159;-64
2023/08/22 06:41:31;;;;;;;9.73;2.30;;;;;;;;;;5019045;28;20144;-64
2023/08/22 06:43:56;;;;;;;7.57;2.00;;;;;;;;;;5020800;28;20069;-64
2023/08/22 06:46:22;;;;;;;9.73;2.33;;;;;;;;;;5014786;28;20029;-66
2023/08/22 06:48:48;;;;;;;10.38;2.67;;;;;;;;;;5022300;28;20444;-64
2023/08/22 06:51:14;;;;;;;7.85;2.10;;;;;;;;;;5018131;28;20533;-65
2023/08/22 06:53:39;;;;;;;9.55;2.30;;;;;;;;;;5024077;28;20051;-65
2023/08/22 06:56:04;;;;;;;9.85;2.20;;;;;;;;;;5017530;28;20036;-64
2023/08/22 06:58:30;;;;;;;8.05;2.03;;;;;;;;;;5019080;28;20048;-64
2023/08/22 07:00:55;;;;;;;9.07;2.58;;;;;;;;;;5018353;28;20067;-63
2023/08/22 07:03:20;;;;;;;8.52;2.50;;;;;;;;;;5016900;28;20538;-66
2023/08/22 07:05:50;;;;;;;10.43;2.50;;;;;;;;;;5015373;28;20132;-67
2023/08/22 07:08:16;;;;;;;9.50;2.50;;;;;;;;;;5014698;28;20111;-65
2023/08/22 07:10:41;;;;;;;13.55;2.92;;;;;;;;;;5014872;28;20595;-65
2023/08/22 07:13:06;;;;;;;10.00;2.60;;;;;;;;;;5033301;28;20120;-65
2023/08/22 07:15:33;;;;;;;12.60;2.92;;;;;;;;;;5015233;28;20083;-65
2023/08/22 07:17:59;;;;;;;10.90;2.58;;;;;;;;;;5022609;28;20041;-65
2023/08/22 07:20:24;;;;;;;8.85;2.22;;;;;;;;;;5018369;28;20108;-65
2023/08/22 07:22:49;;;;;;;11.48;2.67;;;;;;;;;;5018357;28;20037;-65
2023/08/22 07:25:15;;;;;;;9.95;2.90;;;;;;;;;;5017240;28;20438;-65
2023/08/22 07:27:40;;;;;;;10.02;2.80;;;;;;;;;;5018299;28;20045;-65
2023/08/22 07:30:06;;;;;;;9.07;2.50;;;;;;;;;;5019619;28;20044;-63
2023/08/22 07:32:31;;;;;;;11.00;3.00;;;;;;;;;;4994893;28;20033;-63
2023/08/22 07:34:57;;;;;;;9.43;2.75;;;;;;;;;;5019840;28;20999;-63
2023/08/22 07:37:26;;;;;;;11.23;2.70;;;;;;;;;;5014128;28;20043;-64
2023/08/22 07:39:51;;;;;;;10.20;2.72;;;;;;;;;;5019002;28;20263;-64
2023/08/22 07:42:17;;;;;;;10.07;2.90;;;;;;;;;;5013844;28;20041;-64
2023/08/22 07:44:44;;;;;;;9.38;2.85;;;;;;;;;;5016278;28;20094;-65
2023/08/22 07:47:12;;;;;;;10.35;2.95;;;;;;;;;;5017504;28;20044;-64
2023/08/22 07:49:37;;;;;;;14.63;3.38;;;;;;;;;;5017525;28;20135;-65
2023/08/22 07:52:02;;;;;;;9.05;3.05;;;;;;;;;;5017302;28;20323;-64
2023/08/22 07:54:30;;;;;;;14.52;3.33;;;;;;;;;;5018763;28;20044;-64
2023/08/22 07:56:56;;;;;;;9.82;3.38;;;;;;;;;;5015484;28;20116;-64
2023/08/22 07:59:21;;;;;;;14.15;3.15;;;;;;;;;;5017217;28;20026;-64
2023/08/22 08:01:46;;;;;;;11.95;3.25;;;;;;;;;;5018878;28;20500;-64
2023/08/22 08:04:12;;;;;;;12.75;3.50;;;;;;;;;;5037439;28;20045;-65
2023/08/22 08:06:37;;;;;;;9.40;3.28;;;;;;;;;;5022550;28;20910;-64
2023/08/22 08:09:06;;;;;;;11.68;3.58;;;;;;;;;;5003604;28;20030;-65
2023/08/22 08:11:34;;;;;;;9.65;3.42;;;;;;;;;;5020425;28;20139;-65
2023/08/22 08:14:02;;;;;;;11.35;3.65;;;;;;;;;;5018036;28;20036;-64
2023/08/22 08:16:27;;;;;;;13.73;3.40;;;;;;;;;;5017457;28;20123;-64
2023/08/22 08:18:52;;;;;;;11.25;3.50;;;;;;;;;;5022672;28;20743;-65
2023/08/22 08:21:21;;;;;;;16.25;3.53;;;;;;;;;;5045309;28;20107;-65
2023/08/22 08:23:46;;;;;;;13.88;3.38;;;;;;;;;;5016428;28;20559;-64
2023/08/22 08:26:12;;;;;;;9.88;3.20;;;;;;;;;;5024652;28;20972;-64
2023/08/22 08:28:38;;;;;;;10.88;3.50;;;;;;;;;;5018733;28;20094;-66
2023/08/22 08:31:06;;;;;;;11.88;3.42;;;;;;;;;;5022632;28;20028;-65
2023/08/22 08:33:31;;;;;;;9.77;3.33;;;;;;;;;;5023111;28;20406;-65
2023/08/22 08:35:57;;;;;;;8.05;3.50;;;;;;;;;;5048869;28;20108;-65
2023/08/22 08:38:22;;;;;;;10.07;3.72;;;;;;;;;;5022193;28;20096;-63
2023/08/22 08:40:48;;;;;;;8.32;3.35;;;;;;;;;;5000392;28;20653;-65
2023/08/22 08:43:13;;;;;;;9.57;3.17;;;;;;;;;;5017930;28;20087;-64
2023/08/22 08:45:41;;;;;;;19.15;3.80;;;;;;;;;;5015964;28;22338;-64
2023/08/22 08:48:07;;;;;;;10.52;3.33;;;;;;;;;;5022713;28;20041;-64
2023/08/22 08:50:35;;;;;;;7.68;2.90;;;;;;;;;;5015518;28;20032;-65
2023/08/22 08:53:01;;;;;;;11.98;3.53;;;;;;;;;;5016795;28;20122;-64
2023/08/22 08:55:28;;;;;;;10.13;3.40;;;;;;;;;;5005239;28;20547;-63
2023/08/22 08:57:56;;;;;;;10.23;3.05;;;;;;;;;;5014653;28;20134;-66
2023/08/22 09:00:21;;;;;;;11.02;3.22;;;;;;;;;;5017891;28;20057;-69
2023/08/22 09:03:05;;;;;;;8.38;2.92;;;;;;;;;;5014191;28;20098;-69
2023/08/22 09:05:49;;;;;;;10.43;2.95;;;;;;;;;;5014788;28;20051;-70
2023/08/22 09:08:33;;;;;;;11.80;3.28;;;;;;;;;;5013314;28;20246;-70
2023/08/22 09:11:28;;;;;;;8.65;2.88;;;;;;;;;;5015246;28;20753;-70
2023/08/22 09:14:17;;;;;;;10.48;3.45;;;;;;;;;;5016962;28;20136;-71
2023/08/22 09:17:04;;;;;;;8.75;3.25;;;;;;;;;;5014724;28;20355;-70
2023/08/22 09:19:48;;;;;;;11.65;3.10;;;;;;;;;;5015937;28;20091;-70
2023/08/22 09:22:34;;;;;;;8.60;3.28;;;;;;;;;;5015761;28;20048;-70
2023/08/22 09:25:03;;;;;;;8.68;2.90;;;;;;;;;;5017378;28;20059;-68
2023/08/22 09:27:29;;;;;;;9.85;3.17;;;;;;;;;;5029041;28;20562;-72
2023/08/22 09:30:00;;;;;;;10.10;2.90;;;;;;;;;;5016221;28;20040;-70
2023/08/22 09:32:25;;;;;;;10.25;3.40;;;;;;;;;;5014574;28;20042;-72
2023/08/22 09:34:55;;;;;;;9.38;3.20;;;;;;;;;;5017521;28;20051;-71
2023/08/22 09:37:32;;;;;;;7.97;3.13;;;;;;;;;;5016422;28;20048;-71
2023/08/22 09:39:58;;;;;;;7.10;2.88;;;;;;;;;;5015709;28;20788;-73
2023/08/22 09:42:26;;;;;;;11.55;3.13;;;;;;;;;;5016647;28;20029;-67
2023/08/22 09:44:52;;;;;;;16.48;3.45;;;;;;;;;;5015412;28;20079;-64
2023/08/22 09:47:20;;;;;;;11.85;3.30;;;;;;;;;;5017262;28;20033;-65
2023/08/22 09:49:48;;;;;;;10.80;3.30;;;;;;;;;;5015570;28;20643;-68
2023/08/22 09:52:14;;;;;;;11.27;3.08;;;;;;;;;;5016053;28;20041;-66
2023/08/22 09:54:41;;;;;;;12.05;2.80;;;;;;;;;;5015621;28;20639;-65
2023/08/22 09:57:07;;;;;;;10.07;3.15;;;;;;;;;;5039399;28;20041;-66
2023/08/22 09:59:33;;;;;;;10.07;3.20;;;;;;;;;;5026258;28;20669;-69
2023/08/22 10:01:59;;;;;;;9.82;3.67;;;;;;;;;;5013458;28;20044;-69
2023/08/22 10:04:24;;;;;;;9.23;3.30;;;;;;;;;;5013513;28;20517;-70
2023/08/22 10:06:50;;;;;;;9.35;3.20;;;;;;;;;;5018367;28;20047;-70
2023/08/22 10:09:18;;;;;;;9.02;2.95;;;;;;;;;;5014989;28;20835;-71
2023/08/22 10:11:47;;;;;;;8.48;2.97;;;;;;;;;;5023911;28;20120;-70
2023/08/22 10:14:13;;;;;;;11.65;2.95;;;;;;;;;;5018401;28;20043;-72
2023/08/22 10:16:39;;;;;;;14.80;2.85;;;;;;;;;;5014362;28;20598;-67
2023/08/22 10:19:08;;;;;;;8.65;3.00;;;;;;;;;;5019519;28;20033;-72
2023/08/22 10:21:48;;;;;;;9.77;2.70;;;;;;;;;;5014883;28;20044;-67
2023/08/22 10:24:21;;;;;;;9.13;3.00;;;;;;;;;;5018637;28;20045;-66
2023/08/22 10:26:48;;;;;;;9.07;2.83;;;;;;;;;;5053131;28;20041;-70
2023/08/22 10:29:15;;;;;;;7.82;2.70;;;;;;;;;;5006305;28;20123;-68
2023/08/22 10:31:59;;;;;;;11.10;2.47;;;;;;;;;;5016307;28;20033;-71
2023/08/22 10:34:24;;;;;;;10.65;2.25;;;;;;;;;;5019680;28;20033;-72
2023/08/22 10:36:59;;;;;;;8.63;2.28;;;;;;;;;;5050971;28;20879;-72
2023/08/22 10:39:37;;;;;;;7.47;2.33;;;;;;;;;;5019270;28;20033;-71
2023/08/22 10:42:02;;;;;;;7.22;2.00;;;;;;;;;;5021016;28;20049;-64
2023/08/22 10:44:30;;;;;;;5.95;1.92;;;;;;;;;;5019243;28;20073;-66
2023/08/22 10:47:04;;;;;;;9.27;2.33;;;;;;;;;;5029599;28;20043;-65
2023/08/22 10:49:33;;;;;;;8.45;2.50;;;;;;;;;;4999522;28;20808;-65
2023/08/22 10:52:06;;;;;;;9.02;2.33;;;;;;;;;;4996333;28;20041;-67
2023/08/22 10:54:32;;;;;;;5.97;1.63;;;;;;;;;;5000392;28;20052;-64
2023/08/22 10:57:16;;;;;;;8.32;2.10;;;;;;;;;;4997421;28;20830;-66
2023/08/22 10:59:54;;;;;;;5.75;1.83;;;;;;;;;;4982700;28;20048;-63
2023/08/22 11:02:19;;;;;;;10.23;2.00;;;;;;;;;;5002194;28;20607;-66
2023/08/22 11:04:45;;;;;;;7.57;1.80;;;;;;;;;;5010998;28;20061;-71
2023/08/22 11:07:11;;;;;;;8.90;1.90;;;;;;;;;;5017499;27;20143;-70
2023/08/22 11:09:36;;;;;;;7.20;2.15;;;;;;;;;;5018590;28;20093;-72
2023/08/22 11:12:16;;;;;;;7.28;2.10;;;;;;;;;;5020343;28;20049;-70
2023/08/22 11:14:45;;;;;;;6.25;2.00;;;;;;;;;;5018435;28;20049;-70
2023/08/22 11:17:12;;;;;;;7.10;2.00;;;;;;;;;;5048686;28;20048;-69
2023/08/22 11:19:38;;;;;;;9.75;1.92;;;;;;;;;;5016999;28;20556;-71
2023/08/22 11:22:04;;;;;;;5.78;1.92;;;;;;;;;;5019407;28;20040;-68
2023/08/22 11:24:30;;;;;;;9.30;2.08;;;;;;;;;;5024325;28;20052;-70
2023/08/22 11:26:55;;;;;;;8.90;2.25;;;;;;;;;;5018801;28;20029;-70
2023/08/22 11:29:22;;;;;;;7.03;2.05;;;;;;;;;;5019435;28;20151;-70
2023/08/22 11:31:48;;;;;;;8.88;2.30;;;;;;;;;;5016300;28;20045;-70
2023/08/22 11:34:13;;;;;;;6.82;2.00;;;;;;;;;;5022412;28;20036;-70
2023/08/22 11:36:39;;;;;;;8.93;2.30;;;;;;;;;;5019750;28;20309;-68
2023/08/22 11:39:07;;;;;;;6.10;1.95;;;;;;;;;;5016191;28;20096;-71
2023/08/22 11:41:32;;;;;;;5.25;1.88;;;;;;;;;;5016121;28;20111;-68
2023/08/22 11:44:00;;;;;;;5.63;2.00;;;;;;;;;;5016659;28;20501;-72
2023/08/22 11:46:26;;;;;;;5.97;2.25;;;;;;;;;;5016089;28;20060;-70
2023/08/22 11:48:52;;;;;;;7.57;2.30;;;;;;;;;;5021942;28;20026;-73
2023/08/22 11:51:20;;;;;;;7.85;2.00;;;;;;;;;;5016359;28;20188;-73
2023/08/22 11:53:46;;;;;;;7.72;2.05;;;;;;;;;;5017793;28;20029;-71
2023/08/22 11:56:12;;;;;;;8.25;2.75;;;;;;;;;;5018679;28;20040;-72
2023/08/22 11:58:43;;;;;;;8.88;2.30;;;;;;;;;;5017818;28;20058;-72
2023/08/22 12:01:10;;;;;;;6.72;2.20;;;;;;;;;;5015150;28;20118;-70
2023/08/22 12:03:41;;;;;;;6.18;2.10;;;;;;;;;;5018822;28;20075;-68
2023/08/22 12:06:15;;;;;;;4.68;2.30;;;;;;;;;;5015879;28;20133;-71
2023/08/22 12:08:41;;;;;;;9.82;2.50;;;;;;;;;;5016716;28;20189;-70
2023/08/22 12:11:07;;;;;;;7.40;2.50;;;;;;;;;;5017858;28;20044;-75
2023/08/22 12:13:32;;;;;;;7.75;2.55;;;;;;;;;;5019358;28;20085;-67
2023/08/22 12:15:57;;;;;;;7.65;2.60;;;;;;;;;;5017050;28;20037;-67
2023/08/22 12:18:29;;;;;;;5.63;2.22;;;;;;;;;;5020740;28;20034;-68
2023/08/22 12:20:57;;;;;;;6.60;2.10;;;;;;;;;;5014857;28;20041;-69
2023/08/22 12:23:22;;;;;;;6.50;2.15;;;;;;;;;;5014435;28;20041;-66
2023/08/22 12:25:48;;;;;;;5.60;2.13;;;;;;;;;;5017499;28;20407;-67
2023/08/22 12:28:16;;;;;;;8.95;2.15;;;;;;;;;;5015810;28;20048;-68
2023/08/22 12:30:41;;;;;;;6.38;2.03;;;;;;;;;;5016759;28;20037;-68
2023/08/22 12:33:08;;;;;;;7.28;1.95;;;;;;;;;;5015137;28;20043;-69
2023/08/22 12:35:38;;;;;;;6.85;2.08;;;;;;;;;;5036192;28;21045;-68
2023/08/22 12:38:05;;;;;;;8.73;2.42;;;;;;;;;;5017325;28;20036;-66
2023/08/22 12:40:31;;;;;;;6.60;2.00;;;;;;;;;;5016906;28;20383;-69
2023/08/22 12:42:57;;;;;;;9.40;2.35;;;;;;;;;;5018104;28;20302;-65
2023/08/22 12:45:23;;;;;;;6.57;2.00;;;;;;;;;;5017746;28;20041;-67
2023/08/22 12:47:51;;;;;;;22.88;3.20;;;;;;;;;;5036352;28;20185;-67
2023/08/22 12:50:16;;;;;;;8.60;2.17;;;;;;;;;;5003837;28;20524;-69
2023/08/22 12:52:44;;;;;;;6.90;1.70;;;;;;;;;;5016519;28;20052;-67
2023/08/22 12:55:10;;;;;;;6.75;2.33;;;;;;;;;;5018558;28;20433;-70
2023/08/22 12:57:36;;;;;;;5.70;1.90;;;;;;;;;;5015704;28;20033;-71
2023/08/22 13:00:02;;;;;;;6.13;1.77;;;;;;;;;;5015062;28;20041;-73
2023/08/22 13:02:30;;;;;;;6.57;1.70;;;;;;;;;;5017353;28;20037;-74
2023/08/22 13:04:56;;;;;;;7.43;1.90;;;;;;;;;;5017606;28;20049;-73
2023/08/22 13:07:21;;;;;;;6.30;1.70;;;;;;;;;;5017664;28;20526;-74
2023/08/22 13:09:46;;;;;;;7.18;1.73;;;;;;;;;;5047578;28;20561;-73
2023/08/22 13:12:12;;;;;;;3.53;1.50;;;;;;;;;;5015892;28;20037;-72
2023/08/22 13:14:37;;;;;;;5.68;1.77;;;;;;;;;;5018417;28;20032;-72
2023/08/22 13:17:03;;;;;;;5.70;1.80;;;;;;;;;;5015556;28;20496;-70
2023/08/22 13:19:29;;;;;;;6.32;1.98;;;;;;;;;;5019566;28;20171;-70
2023/08/22 13:21:54;;;;;;;4.55;1.70;;;;;;;;;;4992667;28;20753;-72
2023/08/22 13:24:20;;;;;;;5.68;1.80;;;;;;;;;;5016610;28;20155;-75
2023/08/22 13:26:45;;;;;;;9.55;2.28;;;;;;;;;;5016131;28;20159;-73
2023/08/22 13:29:13;;;;;;;7.38;2.08;;;;;;;;;;5016374;28;20061;-74
2023/08/22 13:31:41;;;;;;;7.35;1.95;;;;;;;;;;5015685;28;20040;-74
2023/08/22 13:34:06;;;;;;;4.03;1.42;;;;;;;;;;5014270;28;20045;-70
2023/08/22 13:36:34;;;;;;;4.90;1.73;;;;;;;;;;5013802;28;20044;-73
2023/08/22 13:38:59;;;;;;;5.80;1.50;;;;;;;;;;5015503;28;20338;-73
2023/08/22 13:41:25;;;;;;;3.78;1.50;;;;;;;;;;5019423;28;20086;-74
2023/08/22 13:43:52;;;;;;;6.47;1.67;;;;;;;;;;5045253;28;20037;-73
2023/08/22 13:46:18;;;;;;;4.18;1.40;;;;;;;;;;5013679;28;20065;-72
2023/08/22 13:48:46;;;;;;;4.15;1.60;;;;;;;;;;5016207;28;20512;-73
2023/08/22 13:51:16;;;;;;;4.65;2.10;;;;;;;;;;5015484;28;20142;-74
2023/08/22 13:53:41;;;;;;;3.97;1.60;;;;;;;;;;5013038;28;20041;-67
2023/08/22 13:56:09;;;;;;;6.82;1.70;;;;;;;;;;5013426;28;20036;-71
2023/08/22 13:58:34;;;;;;;5.50;1.33;;;;;;;;;;5015724;28;20037;-71
2023/08/22 14:00:59;;;;;;;8.43;1.70;;;;;;;;;;5016533;28;20037;-72
2023/08/22 14:03:25;;;;;;;4.07;1.52;;;;;;;;;;5014046;28;20029;-67
2023/08/22 14:05:53;;;;;;;7.38;1.58;;;;;;;;;;5029939;28;20099;-72
2023/08/22 14:08:18;;;;;;;7.47;1.98;;;;;;;;;;5014731;28;20543;-73
2023/08/22 14:10:43;;;;;;;6.07;1.60;;;;;;;;;;5015405;28;20030;-74
2023/08/22 14:13:09;;;;;;;5.53;1.83;;;;;;;;;;5015290;28;20096;-72
2023/08/22 14:15:34;;;;;;;4.88;1.58;;;;;;;;;;5012774;28;20126;-72
2023/08/22 14:18:01;;;;;;;5.18;1.58;;;;;;;;;;5014992;28;20619;-71
2023/08/22 14:20:27;;;;;;;4.20;1.50;;;;;;;;;;5019783;28;20037;-71
2023/08/22 14:22:52;;;;;;;5.55;1.40;;;;;;;;;;5013585;28;20046;-67
2023/08/22 14:25:17;;;;;;;5.15;1.60;;;;;;;;;;5015376;28;20072;-71
2023/08/22 14:27:44;;;;;;;5.90;2.20;;;;;;;;;;5015661;28;20123;-69
2023/08/22 14:30:10;;;;;;;5.18;1.92;;;;;;;;;;5014253;28;20158;-73